Time;durP1;ratioP1;P1;durP2;ratioP2;P2;SDS_P1;SDS_P2;PMS_P1;PMS_P2;Temp;Humidity;BMP_temperature;BMP_pressure;BME280_temperature;BME280_humidity;BME280_pressure;Samples;Min_cycle;Max_cycle;Signal;HPM_P1;HPM_P2
2021/05/04 00:00:04;;;;;;;5.25;1.85;;;19.00;34.00;;;;;;5096785;28;20035;-67
2021/05/04 00:02:30;;;;;;;5.53;1.88;;;19.00;34.10;;;;;;5095979;28;20039;-67
2021/05/04 00:04:56;;;;;;;3.58;1.75;;;19.00;34.10;;;;;;5096009;28;20028;-67
2021/05/04 00:07:21;;;;;;;3.90;1.83;;;19.00;34.00;;;;;;5095854;28;20027;-67
2021/05/04 00:09:47;;;;;;;4.75;1.77;;;19.00;34.00;;;;;;5096350;28;20085;-67
2021/05/04 00:12:12;;;;;;;4.93;1.63;;;19.00;34.00;;;;;;5096167;28;20044;-67
2021/05/04 00:14:39;;;;;;;3.75;1.60;;;19.00;34.00;;;;;;5096416;28;20379;-67
2021/05/04 00:17:04;;;;;;;4.93;2.05;;;19.00;34.00;;;;;;5095772;28;20020;-67
2021/05/04 00:19:31;;;;;;;5.93;1.98;;;19.00;34.00;;;;;;5095661;28;20118;-67
2021/05/04 00:21:57;;;;;;;4.47;2.22;;;19.00;34.00;;;;;;5095922;28;20395;-67
2021/05/04 00:24:22;;;;;;;4.85;2.15;;;18.90;34.00;;;;;;5095690;28;20052;-67
2021/05/04 00:26:48;;;;;;;6.85;2.55;;;18.90;34.00;;;;;;5095613;28;20475;-67
2021/05/04 00:29:13;;;;;;;5.18;1.90;;;19.00;34.00;;;;;;5095561;28;20100;-67
2021/05/04 00:31:39;;;;;;;5.07;2.00;;;19.00;34.00;;;;;;5095652;28;20460;-67
2021/05/04 00:34:05;;;;;;;4.55;1.92;;;19.00;34.00;;;;;;5095229;28;20475;-67
2021/05/04 00:36:30;;;;;;;4.18;1.80;;;18.90;33.90;;;;;;5095065;28;20031;-67
2021/05/04 00:38:56;;;;;;;4.97;2.33;;;18.90;34.00;;;;;;5094064;28;20024;-67
2021/05/04 00:41:22;;;;;;;5.55;2.15;;;19.00;34.00;;;;;;5095274;28;20058;-67
2021/05/04 00:43:49;;;;;;;5.20;2.33;;;19.00;33.90;;;;;;5095216;28;20422;-67
2021/05/04 00:46:15;;;;;;;6.63;2.40;;;18.90;33.90;;;;;;5095197;28;20032;-67
2021/05/04 00:48:40;;;;;;;3.50;1.90;;;18.90;33.90;;;;;;5095273;28;20027;-67
2021/05/04 00:51:06;;;;;;;4.80;2.30;;;18.90;33.90;;;;;;5094902;28;20028;-67
2021/05/04 00:53:32;;;;;;;4.15;1.80;;;18.90;34.00;;;;;;5100421;28;20028;-67
2021/05/04 00:56:02;;;;;;;5.00;2.10;;;18.90;33.90;;;;;;5095803;28;20024;-67
2021/05/04 00:58:28;;;;;;;4.45;2.15;;;18.90;33.90;;;;;;5094921;28;20024;-68
2021/05/04 01:00:54;;;;;;;4.72;2.20;;;18.90;33.90;;;;;;5094815;28;20028;-67
2021/05/04 01:03:21;;;;;;;4.10;2.05;;;18.90;34.00;;;;;;5094688;28;20138;-67
2021/05/04 01:05:47;;;;;;;7.07;2.50;;;18.90;33.90;;;;;;5094747;28;20392;-67
2021/05/04 01:08:12;;;;;;;6.25;2.65;;;18.90;33.90;;;;;;5094718;28;20036;-67
2021/05/04 01:10:39;;;;;;;5.35;2.15;;;18.90;33.90;;;;;;5094295;28;20020;-67
2021/05/04 01:13:06;;;;;;;4.95;2.10;;;18.90;33.90;;;;;;5094521;28;20042;-67
2021/05/04 01:15:32;;;;;;;5.93;2.22;;;18.90;33.90;;;;;;5092876;28;20080;-67
2021/05/04 01:17:57;;;;;;;7.88;2.45;;;18.90;33.90;;;;;;5093620;28;20113;-67
2021/05/04 01:20:23;;;;;;;5.18;2.33;;;18.90;33.90;;;;;;5094321;28;20062;-67
2021/05/04 01:22:49;;;;;;;6.13;2.42;;;18.90;33.90;;;;;;5094474;28;20032;-67
2021/05/04 01:25:16;;;;;;;5.43;2.40;;;18.90;33.90;;;;;;5094454;28;20490;-66
2021/05/04 01:27:42;;;;;;;6.75;2.63;;;18.90;33.90;;;;;;5094410;28;20027;-67
2021/05/04 01:30:08;;;;;;;5.05;2.28;;;18.90;33.90;;;;;;5094521;28;20035;-67
2021/05/04 01:32:33;;;;;;;4.75;2.40;;;18.90;33.90;;;;;;5094215;28;20047;-67
2021/05/04 01:34:59;;;;;;;5.10;2.35;;;18.90;33.90;;;;;;5092676;28;20468;-68
2021/05/04 01:37:25;;;;;;;5.30;2.58;;;18.90;33.90;;;;;;5094334;28;20050;-68
2021/05/04 01:39:52;;;;;;;4.97;2.60;;;18.80;33.90;;;;;;5094108;28;20024;-66
2021/05/04 01:42:19;;;;;;;5.43;2.38;;;18.80;33.90;;;;;;5094127;28;20039;-67
2021/05/04 01:44:46;;;;;;;5.47;2.55;;;18.80;33.90;;;;;;5094061;28;20103;-67
2021/05/04 01:47:12;;;;;;;5.15;2.55;;;18.90;33.90;;;;;;5094093;28;20052;-67
2021/05/04 01:49:38;;;;;;;5.80;2.33;;;18.90;33.90;;;;;;5094162;28;20066;-67
2021/05/04 01:52:06;;;;;;;5.05;2.55;;;18.80;33.90;;;;;;5094605;28;20472;-67
2021/05/04 01:54:31;;;;;;;8.80;2.95;;;18.80;33.90;;;;;;5097004;28;20479;-67
2021/05/04 01:56:58;;;;;;;5.20;2.47;;;18.80;33.90;;;;;;5095045;28;20050;-66
2021/05/04 01:59:26;;;;;;;4.53;2.30;;;18.80;33.90;;;;;;5094179;28;20024;-67
2021/05/04 02:01:53;;;;;;;6.57;2.33;;;18.80;33.90;;;;;;5093864;28;20016;-67
2021/05/04 02:04:18;;;;;;;6.35;3.17;;;18.80;33.90;;;;;;5093762;28;20105;-67
2021/05/04 02:06:44;;;;;;;5.32;2.75;;;18.80;33.90;;;;;;5093978;28;20016;-67
2021/05/04 02:09:11;;;;;;;6.18;2.72;;;18.80;33.90;;;;;;5093690;28;20106;-67
2021/05/04 02:11:37;;;;;;;5.82;2.83;;;18.80;33.90;;;;;;5093924;28;20032;-67
2021/05/04 02:14:07;;;;;;;6.78;2.80;;;18.80;33.90;;;;;;5093519;28;20085;-67
2021/05/04 02:16:32;;;;;;;5.20;2.45;;;18.80;33.90;;;;;;5093498;28;20028;-67
2021/05/04 02:18:58;;;;;;;5.90;3.03;;;18.80;33.90;;;;;;5093477;28;20027;-67
2021/05/04 02:21:24;;;;;;;7.13;2.97;;;18.80;33.90;;;;;;5093722;28;20031;-67
2021/05/04 02:23:50;;;;;;;5.15;2.50;;;18.80;33.90;;;;;;5093461;28;20557;-67
2021/05/04 02:26:17;;;;;;;6.13;3.08;;;18.70;33.90;;;;;;5092591;28;20047;-67
2021/05/04 02:28:43;;;;;;;7.20;3.30;;;18.80;33.90;;;;;;5093953;28;20024;-67
2021/05/04 02:31:08;;;;;;;5.93;3.30;;;18.80;33.90;;;;;;5098322;28;20028;-67
2021/05/04 02:33:39;;;;;;;7.93;3.78;;;18.70;33.90;;;;;;5097919;28;20032;-67
2021/05/04 02:36:05;;;;;;;7.13;3.40;;;18.70;34.00;;;;;;5099010;28;20077;-66
2021/05/04 02:38:31;;;;;;;6.60;3.10;;;18.70;34.00;;;;;;5103886;28;20027;-67
2021/05/04 02:40:58;;;;;;;5.25;2.90;;;18.70;34.00;;;;;;5100828;28;20038;-67
2021/05/04 02:43:24;;;;;;;8.13;3.42;;;18.70;34.00;;;;;;5112364;28;20024;-68
2021/05/04 02:45:50;;;;;;;7.53;3.30;;;18.70;34.00;;;;;;5109062;28;20032;-67
2021/05/04 02:48:16;;;;;;;7.32;2.88;;;18.70;34.10;;;;;;5107313;28;20020;-68
2021/05/04 02:50:42;;;;;;;6.63;3.20;;;18.70;34.10;;;;;;5108137;28;20092;-66
2021/05/04 02:53:07;;;;;;;9.15;3.20;;;18.70;34.10;;;;;;5105604;28;20106;-67
2021/05/04 02:55:33;;;;;;;9.48;3.13;;;18.70;34.20;;;;;;5107030;28;20024;-67
2021/05/04 02:57:58;;;;;;;6.05;2.70;;;18.70;34.20;;;;;;5106803;28;20038;-68
2021/05/04 03:00:24;;;;;;;7.50;3.00;;;18.60;34.20;;;;;;5100943;28;20020;-67
2021/05/04 03:02:49;;;;;;;7.30;2.78;;;18.60;34.20;;;;;;5098634;28;20053;-67
2021/05/04 03:05:15;;;;;;;7.53;3.20;;;18.70;34.20;;;;;;5096735;28;20483;-66
2021/05/04 03:07:41;;;;;;;6.25;2.97;;;18.60;34.20;;;;;;5097819;28;20053;-67
2021/05/04 03:10:07;;;;;;;6.75;2.95;;;18.60;34.20;;;;;;5098034;28;20028;-67
2021/05/04 03:12:33;;;;;;;6.10;2.90;;;18.60;34.20;;;;;;5097733;28;20051;-67
2021/05/04 03:14:58;;;;;;;8.48;2.65;;;18.60;34.20;;;;;;5097094;28;20024;-67
2021/05/04 03:17:24;;;;;;;6.65;3.30;;;18.60;34.20;;;;;;5095968;28;20371;-67
2021/05/04 03:19:50;;;;;;;6.18;3.13;;;18.60;34.20;;;;;;5096694;28;20375;-68
2021/05/04 03:22:15;;;;;;;6.75;3.15;;;18.60;34.20;;;;;;5096208;28;20032;-67
2021/05/04 03:24:41;;;;;;;6.68;3.10;;;18.60;34.30;;;;;;5095816;28;20395;-67
2021/05/04 03:27:07;;;;;;;5.97;2.70;;;18.60;34.30;;;;;;5095332;28;20093;-68
2021/05/04 03:29:33;;;;;;;6.03;2.88;;;18.60;34.30;;;;;;5094963;28;20065;-67
2021/05/04 03:31:58;;;;;;;7.28;2.97;;;18.60;34.30;;;;;;5094658;28;20109;-67
2021/05/04 03:34:24;;;;;;;6.20;2.80;;;18.60;34.30;;;;;;5094952;28;20017;-66
2021/05/04 03:36:49;;;;;;;8.02;3.17;;;18.60;34.30;;;;;;5094810;28;20032;-67
2021/05/04 03:39:15;;;;;;;8.48;2.80;;;18.60;34.40;;;;;;5094663;28;20031;-67
2021/05/04 03:41:40;;;;;;;7.15;3.22;;;18.60;34.40;;;;;;5094283;28;20035;-67
2021/05/04 03:44:06;;;;;;;7.07;3.30;;;18.60;34.40;;;;;;5094812;28;20024;-67
2021/05/04 03:46:31;;;;;;;6.10;2.50;;;18.60;34.40;;;;;;5094595;28;20020;-67
2021/05/04 03:48:57;;;;;;;6.22;2.90;;;18.60;34.50;;;;;;5094795;28;20047;-67
2021/05/04 03:51:22;;;;;;;7.38;2.80;;;18.60;34.50;;;;;;5094678;28;20050;-66
2021/05/04 03:53:48;;;;;;;7.68;2.65;;;18.60;34.50;;;;;;5094479;28;20020;-67
2021/05/04 03:56:14;;;;;;;6.22;3.08;;;18.60;34.50;;;;;;5094671;28;20056;-67
2021/05/04 03:58:39;;;;;;;6.03;2.70;;;18.50;34.60;;;;;;5094558;28;20070;-67
2021/05/04 04:01:05;;;;;;;5.82;2.53;;;18.60;34.60;;;;;;5094796;28;20012;-67
2021/05/04 04:03:30;;;;;;;6.43;2.85;;;18.60;34.60;;;;;;5095330;28;20352;-67
2021/05/04 04:05:56;;;;;;;5.40;2.60;;;18.50;34.60;;;;;;5096536;28;20024;-67
2021/05/04 04:08:22;;;;;;;4.90;2.67;;;18.50;34.60;;;;;;5095377;28;20024;-67
2021/05/04 04:10:47;;;;;;;5.90;2.72;;;18.50;34.70;;;;;;5095036;28;20031;-66
2021/05/04 04:13:13;;;;;;;6.88;2.78;;;18.50;34.70;;;;;;5094832;28;20069;-67
2021/05/04 04:15:39;;;;;;;5.65;2.60;;;18.50;34.70;;;;;;5095059;28;20023;-67
2021/05/04 04:18:05;;;;;;;7.05;2.85;;;18.50;34.80;;;;;;5094702;28;20114;-67
2021/05/04 04:20:31;;;;;;;4.90;2.50;;;18.50;34.80;;;;;;5094797;28;20048;-66
2021/05/04 04:22:57;;;;;;;4.78;2.42;;;18.50;34.80;;;;;;5076115;28;542247;-67
2021/05/04 04:25:22;;;;;;;7.43;2.40;;;18.60;34.80;;;;;;5096342;28;20030;-66
2021/05/04 04:27:48;;;;;;;4.35;2.15;;;18.50;34.80;;;;;;5095986;28;20111;-67
2021/05/04 04:30:15;;;;;;;5.90;2.92;;;18.50;34.80;;;;;;5096247;28;20073;-67
2021/05/04 04:32:41;;;;;;;7.03;2.70;;;18.50;34.80;;;;;;5098221;28;20031;-67
2021/05/04 04:35:07;;;;;;;7.25;2.58;;;18.50;34.90;;;;;;5101431;28;20384;-67
2021/05/04 04:37:33;;;;;;;6.80;2.72;;;18.50;34.90;;;;;;5095401;28;20064;-66
2021/05/04 04:39:58;;;;;;;5.95;2.40;;;18.50;34.90;;;;;;5093936;28;20100;-66
2021/05/04 04:42:24;;;;;;;5.38;2.38;;;18.50;34.90;;;;;;5095162;28;20050;-67
2021/05/04 04:44:50;;;;;;;4.90;2.60;;;18.50;34.90;;;;;;5095359;28;20058;-67
2021/05/04 04:47:15;;;;;;;5.47;2.80;;;18.50;34.90;;;;;;5094832;28;20110;-67
2021/05/04 04:49:41;;;;;;;7.22;2.55;;;18.50;35.00;;;;;;5095033;28;20401;-66
2021/05/04 04:52:06;;;;;;;6.97;2.53;;;18.50;35.00;;;;;;5094042;28;20461;-66
2021/05/04 04:54:33;;;;;;;11.98;2.70;;;18.50;35.00;;;;;;5095113;28;20088;-66
2021/05/04 04:56:59;;;;;;;4.55;2.38;;;18.50;35.00;;;;;;5094970;28;20032;-66
2021/05/04 04:59:25;;;;;;;5.60;2.45;;;18.50;35.00;;;;;;5095147;28;20016;-67
2021/05/04 05:01:50;;;;;;;3.78;2.03;;;18.50;35.00;;;;;;5095298;28;20027;-66
2021/05/04 05:04:16;;;;;;;5.10;2.00;;;18.50;35.10;;;;;;5094603;28;20058;-66
2021/05/04 05:06:43;;;;;;;6.00;2.53;;;18.50;35.10;;;;;;5094800;28;20060;-67
2021/05/04 05:09:09;;;;;;;5.47;2.42;;;18.50;35.00;;;;;;5094721;28;20479;-67
2021/05/04 05:11:38;;;;;;;4.68;2.22;;;18.50;35.10;;;;;;5094330;28;20024;-67
2021/05/04 05:14:05;;;;;;;6.25;2.85;;;18.50;35.10;;;;;;5094855;28;20081;-67
2021/05/04 05:16:31;;;;;;;5.88;2.40;;;18.50;35.10;;;;;;5094427;28;20487;-66
2021/05/04 05:18:57;;;;;;;4.95;2.47;;;18.50;35.10;;;;;;5094386;28;20025;-67
2021/05/04 05:21:23;;;;;;;5.32;2.33;;;18.50;35.10;;;;;;5094312;28;20117;-67
2021/05/04 05:23:49;;;;;;;5.28;2.13;;;18.50;35.10;;;;;;5094149;28;20044;-66
2021/05/04 05:26:19;;;;;;;4.25;2.15;;;18.50;35.10;;;;;;5094622;28;20039;-67
2021/05/04 05:28:44;;;;;;;4.63;2.30;;;18.50;35.10;;;;;;5094335;28;20024;-66
2021/05/04 05:31:10;;;;;;;5.60;1.98;;;18.50;35.10;;;;;;5094302;28;20036;-66
2021/05/04 05:33:36;;;;;;;5.10;2.22;;;18.50;35.20;;;;;;5094109;28;20080;-67
2021/05/04 05:36:02;;;;;;;8.20;2.38;;;18.50;35.10;;;;;;5094140;28;20024;-66
2021/05/04 05:38:28;;;;;;;5.03;2.47;;;18.50;35.10;;;;;;5094234;28;20034;-67
2021/05/04 05:40:55;;;;;;;4.63;2.22;;;18.40;35.20;;;;;;5094308;28;20443;-66
2021/05/04 05:43:22;;;;;;;4.50;2.05;;;18.40;35.20;;;;;;5094132;28;20028;-67
2021/05/04 05:45:48;;;;;;;5.20;2.10;;;18.40;35.30;;;;;;5093928;28;20024;-66
2021/05/04 05:48:13;;;;;;;5.07;2.17;;;18.40;35.30;;;;;;5094061;28;20476;-66
2021/05/04 05:50:39;;;;;;;4.65;2.22;;;18.50;35.30;;;;;;5092765;28;20020;-66
2021/05/04 05:53:05;;;;;;;4.53;1.90;;;18.40;35.30;;;;;;5094020;28;20484;-67
2021/05/04 05:55:31;;;;;;;4.00;1.85;;;18.40;35.30;;;;;;5094018;28;20027;-67
2021/05/04 05:57:57;;;;;;;4.25;2.00;;;18.40;35.30;;;;;;5093846;28;20074;-67
2021/05/04 06:00:23;;;;;;;4.60;1.80;;;18.50;35.30;;;;;;5093724;28;20036;-67
2021/05/04 06:02:50;;;;;;;4.57;2.13;;;18.50;35.40;;;;;;5093520;28;20029;-66
2021/05/04 06:05:15;;;;;;;6.03;2.20;;;18.40;35.30;;;;;;5093454;28;20099;-66
2021/05/04 06:07:41;;;;;;;4.75;2.00;;;18.40;35.30;;;;;;5093455;28;20047;-67
2021/05/04 06:10:07;;;;;;;4.88;2.03;;;18.40;35.30;;;;;;5093626;28;20450;-67
2021/05/04 06:12:33;;;;;;;5.78;2.22;;;18.40;35.40;;;;;;5093745;28;20058;-67
2021/05/04 06:14:58;;;;;;;4.55;1.80;;;18.40;35.40;;;;;;5093815;28;20574;-66
2021/05/04 06:17:24;;;;;;;3.85;1.92;;;18.40;35.40;;;;;;5094223;28;20024;-66
2021/05/04 06:19:49;;;;;;;4.03;1.92;;;18.40;35.40;;;;;;5093845;28;20102;-67
2021/05/04 06:22:15;;;;;;;4.55;2.15;;;18.40;35.40;;;;;;5093209;28;20028;-67
2021/05/04 06:24:40;;;;;;;2.97;1.70;;;18.40;35.40;;;;;;5094019;28;20042;-66
2021/05/04 06:27:06;;;;;;;4.68;2.10;;;18.40;35.50;;;;;;5093592;28;20030;-67
2021/05/04 06:29:31;;;;;;;3.65;1.67;;;18.40;35.60;;;;;;5093416;28;20031;-66
2021/05/04 06:32:24;;;;;;;3.53;1.70;;;18.40;35.50;;;;;;5093510;28;20039;-66
2021/05/04 06:34:43;;;;;;;5.40;1.90;;;18.40;35.50;;;;;;5092658;28;20048;-67
2021/05/04 06:37:08;;;;;;;3.58;1.80;;;18.40;35.60;;;;;;5093519;28;20555;-67
2021/05/04 06:39:34;;;;;;;4.78;1.75;;;18.40;35.60;;;;;;5093581;28;20099;-67
2021/05/04 06:41:59;;;;;;;3.80;1.63;;;18.40;35.60;;;;;;5093609;28;20028;-66
2021/05/04 06:44:25;;;;;;;3.92;1.75;;;18.40;35.60;;;;;;5092009;28;20028;-67
2021/05/04 06:46:51;;;;;;;3.97;1.92;;;18.40;35.60;;;;;;5093256;28;20487;-66
2021/05/04 06:49:16;;;;;;;3.63;1.85;;;18.40;35.60;;;;;;5093656;28;20133;-67
2021/05/04 06:51:42;;;;;;;3.28;1.70;;;18.40;35.60;;;;;;5093758;28;20081;-69
2021/05/04 06:54:07;;;;;;;3.90;1.38;;;18.40;35.60;;;;;;5092970;28;20839;-67
2021/05/04 06:56:33;;;;;;;5.80;1.23;;;17.70;38.90;;;;;;5097323;28;20111;-64
2021/05/04 06:58:59;;;;;;;8.10;1.50;;;17.40;39.90;;;;;;5100145;28;20019;-66
2021/05/04 07:01:25;;;;;;;4.22;1.52;;;17.70;39.20;;;;;;5103166;28;20031;-67
2021/05/04 07:03:51;;;;;;;4.97;1.05;;;17.80;40.20;;;;;;5096443;28;20031;-66
2021/05/04 07:06:16;;;;;;;4.25;1.60;;;18.00;40.10;;;;;;5112856;28;20108;-64
2021/05/04 07:08:43;;;;;;;4.68;1.55;;;18.10;39.00;;;;;;5115875;28;20103;-64
2021/05/04 07:11:08;;;;;;;5.43;1.58;;;18.20;37.60;;;;;;5113772;28;20475;-64
2021/05/04 07:13:34;;;;;;;4.35;1.40;;;18.40;37.50;;;;;;5113231;28;20019;-63
2021/05/04 07:15:59;;;;;;;2.60;1.20;;;18.50;37.20;;;;;;5114809;28;20072;-64
2021/05/04 07:18:25;;;;;;;11.60;2.15;;;18.50;37.10;;;;;;5115375;28;20030;-65
2021/05/04 07:20:51;;;;;;;3.47;1.30;;;18.60;37.10;;;;;;5116625;28;20024;-64
2021/05/04 07:23:17;;;;;;;5.22;1.40;;;18.70;37.00;;;;;;5116511;28;20398;-63
2021/05/04 07:25:42;;;;;;;3.25;1.10;;;18.80;36.90;;;;;;5116017;28;20023;-64
2021/05/04 07:28:08;;;;;;;3.95;1.33;;;18.80;36.90;;;;;;5116361;28;20030;-64
2021/05/04 07:30:37;;;;;;;3.38;1.23;;;18.90;36.80;;;;;;5116265;28;20027;-64
2021/05/04 07:33:03;;;;;;;4.32;1.17;;;18.90;36.80;;;;;;5116306;28;20088;-64
2021/05/04 07:35:29;;;;;;;3.38;1.42;;;19.00;36.80;;;;;;5115847;28;20027;-65
2021/05/04 07:37:57;;;;;;;5.07;1.20;;;19.00;36.70;;;;;;5116461;28;20036;-63
2021/05/04 07:40:23;;;;;;;3.15;1.20;;;19.10;36.60;;;;;;5116612;28;20027;-63
2021/05/04 07:42:49;;;;;;;3.80;1.25;;;19.20;36.50;;;;;;5116228;28;20024;-64
2021/05/04 07:45:15;;;;;;;2.45;1.10;;;19.20;36.50;;;;;;5115920;28;20036;-65
2021/05/04 07:47:41;;;;;;;4.70;1.38;;;19.20;36.40;;;;;;5114954;28;20028;-65
2021/05/04 07:50:10;;;;;;;3.63;1.30;;;19.30;36.50;;;;;;5116109;28;20030;-64
2021/05/04 07:52:37;;;;;;;2.80;1.17;;;19.30;36.50;;;;;;5116364;28;20035;-66
2021/05/04 07:55:03;;;;;;;2.65;1.10;;;19.30;36.50;;;;;;5115594;28;20065;-64
2021/05/04 07:57:28;;;;;;;3.42;1.15;;;19.40;36.40;;;;;;5115588;28;20032;-65
2021/05/04 07:59:55;;;;;;;3.05;1.35;;;19.50;36.40;;;;;;5116463;28;20047;-66
2021/05/04 08:02:20;;;;;;;3.35;1.00;;;19.50;36.40;;;;;;5115613;28;20535;-66
2021/05/04 08:04:46;;;;;;;3.13;1.05;;;19.50;36.30;;;;;;5109219;28;20095;-66
2021/05/04 08:07:12;;;;;;;3.33;1.30;;;19.50;36.30;;;;;;5095470;28;20080;-66
2021/05/04 08:09:38;;;;;;;3.67;1.40;;;19.50;36.30;;;;;;5095264;28;20095;-64
2021/05/04 08:12:04;;;;;;;2.47;1.13;;;19.60;36.20;;;;;;5094921;28;20177;-65
2021/05/04 08:14:32;;;;;;;4.28;1.08;;;19.60;36.20;;;;;;5094559;28;20129;-66
2021/05/04 08:16:58;;;;;;;2.88;1.25;;;19.70;36.20;;;;;;5095099;28;20051;-65
2021/05/04 08:19:24;;;;;;;3.38;1.10;;;19.70;36.20;;;;;;5094848;28;20468;-65
2021/05/04 08:21:49;;;;;;;3.50;1.40;;;19.80;36.20;;;;;;5094569;28;20031;-65
2021/05/04 08:24:15;;;;;;;3.40;1.30;;;19.80;36.20;;;;;;5094044;28;20407;-65
2021/05/04 08:26:41;;;;;;;2.20;1.00;;;19.80;36.20;;;;;;5093566;28;20479;-64
2021/05/04 08:29:07;;;;;;;2.28;1.08;;;19.80;36.10;;;;;;5094377;28;20528;-64
2021/05/04 08:31:34;;;;;;;4.47;1.10;;;19.90;36.20;;;;;;5094666;28;20040;-64
2021/05/04 08:33:59;;;;;;;2.70;0.90;;;19.90;36.20;;;;;;5095068;28;20054;-64
2021/05/04 08:36:25;;;;;;;1.75;0.85;;;20.00;36.10;;;;;;5094404;28;20028;-64
2021/05/04 08:38:50;;;;;;;1.98;0.90;;;20.00;36.20;;;;;;5094910;28;20020;-65
2021/05/04 08:41:16;;;;;;;2.92;1.20;;;20.00;36.10;;;;;;5094609;28;20517;-65
2021/05/04 08:43:49;;;;;;;3.83;1.13;;;20.00;36.10;;;;;;5094827;28;20081;-66
2021/05/04 08:46:16;;;;;;;4.05;1.00;;;20.00;36.10;;;;;;5094574;28;20028;-66
2021/05/04 08:48:45;;;;;;;2.10;0.90;;;20.10;36.10;;;;;;5094683;28;20039;-64
2021/05/04 08:51:13;;;;;;;3.03;1.15;;;20.10;36.10;;;;;;5094747;28;20479;-63
2021/05/04 08:53:39;;;;;;;2.03;0.88;;;20.10;36.10;;;;;;5094333;28;20371;-63
2021/05/04 08:56:08;;;;;;;3.42;1.35;;;20.10;36.10;;;;;;5094112;28;20051;-64
2021/05/04 08:58:33;;;;;;;2.30;0.85;;;20.20;36.10;;;;;;5094897;28;20106;-64
2021/05/04 09:00:59;;;;;;;2.60;1.00;;;20.20;36.10;;;;;;5094697;28;20043;-63
2021/05/04 09:03:45;;;;;;;2.42;1.00;;;20.20;36.10;;;;;;5094107;28;20016;-63
2021/05/04 09:06:20;;;;;;;6.35;1.23;;;20.20;36.10;;;;;;5093626;28;20027;-63
2021/05/04 09:16:42;;;;;;;1.25;0.70;;;20.30;36.10;;;;;;5103786;28;20020;-65
2021/05/04 09:21:41;;;;;;;1.73;0.90;;;20.40;36.10;;;;;;5104192;28;20024;-66
2021/05/04 09:24:19;;;;;;;2.47;0.95;;;20.50;36.10;;;;;;5103012;28;20052;-66
2021/05/04 09:26:45;;;;;;;3.05;1.10;;;20.50;36.10;;;;;;5098772;28;20020;-66
2021/05/04 09:29:11;;;;;;;1.58;0.80;;;20.50;36.00;;;;;;5094770;28;20020;-66
2021/05/04 09:31:38;;;;;;;2.20;1.13;;;20.60;35.90;;;;;;5094361;28;20032;-64
2021/05/04 09:34:12;;;;;;;3.20;1.00;;;20.60;35.90;;;;;;5094187;28;20120;-65
2021/05/04 09:36:40;;;;;;;2.38;0.73;;;20.60;35.90;;;;;;5093450;28;20074;-65
2021/05/04 09:39:08;;;;;;;1.80;0.80;;;20.70;35.90;;;;;;5091495;28;20027;-64
2021/05/04 09:41:34;;;;;;;2.05;0.88;;;20.70;35.90;;;;;;5091684;28;20020;-64
2021/05/04 09:44:00;;;;;;;3.85;0.95;;;20.70;35.90;;;;;;5092975;28;20024;-65
2021/05/04 09:46:48;;;;;;;2.22;0.88;;;20.80;35.90;;;;;;5092832;28;20016;-65
2021/05/04 09:49:37;;;;;;;1.77;0.95;;;20.80;35.90;;;;;;5091516;28;20357;-65
2021/05/04 09:55:06;;;;;;;5.53;1.00;;;21.00;35.80;;;;;;5092589;28;20058;-65
2021/05/04 09:57:37;;;;;;;1.85;0.93;;;21.00;35.70;;;;;;5092898;28;20024;-66
2021/05/04 10:00:16;;;;;;;2.45;0.88;;;21.00;35.70;;;;;;5091642;28;20048;-67
2021/05/04 10:02:43;;;;;;;2.40;1.00;;;21.00;35.70;;;;;;5092855;28;20313;-66
2021/05/04 10:05:14;;;;;;;2.40;0.80;;;21.00;35.70;;;;;;5092455;28;20088;-66
2021/05/04 10:07:40;;;;;;;0.68;0.50;;;21.00;35.70;;;;;;5092821;28;20442;-65
2021/05/04 10:10:08;;;;;;;0.95;0.50;;;21.00;35.70;;;;;;5092676;28;20077;-65
2021/05/04 10:12:36;;;;;;;4.65;0.93;;;21.20;35.60;;;;;;5091165;28;20032;-64
2021/05/04 10:15:10;;;;;;;2.17;0.82;;;21.20;35.50;;;;;;5092470;28;20019;-66
2021/05/04 10:17:37;;;;;;;2.30;1.00;;;21.20;35.60;;;;;;5092351;28;20046;-67
2021/05/04 10:20:15;;;;;;;2.20;0.80;;;21.20;35.60;;;;;;5092977;28;20028;-64
2021/05/04 10:22:41;;;;;;;2.63;0.88;;;21.20;35.50;;;;;;5093380;28;20036;-64
2021/05/04 10:25:25;;;;;;;2.40;1.00;;;21.20;35.60;;;;;;5092831;28;20039;-65
2021/05/04 10:27:53;;;;;;;3.77;0.70;;;21.30;35.50;;;;;;5093276;28;20028;-65
2021/05/04 10:30:20;;;;;;;2.17;0.70;;;21.30;35.60;;;;;;5093482;28;20024;-63
2021/05/04 10:33:01;;;;;;;1.90;0.75;;;21.30;35.60;;;;;;5098150;28;20116;-64
2021/05/04 10:35:30;;;;;;;1.15;0.73;;;21.30;35.60;;;;;;5092783;28;20024;-65
2021/05/04 10:38:05;;;;;;;2.08;0.75;;;21.30;35.70;;;;;;5093466;28;20032;-64
2021/05/04 10:40:34;;;;;;;2.83;0.70;;;21.30;35.70;;;;;;5096300;28;20023;-64
2021/05/04 10:43:23;;;;;;;3.78;0.65;;;21.40;35.70;;;;;;5098310;28;20109;-66
2021/05/04 10:45:50;;;;;;;2.55;0.70;;;21.30;35.70;;;;;;5092139;28;20020;-63
2021/05/04 10:48:16;;;;;;;4.35;0.70;;;21.40;35.70;;;;;;5093285;28;20028;-63
2021/05/04 10:50:53;;;;;;;1.88;0.60;;;21.40;35.70;;;;;;5094776;28;20500;-65
2021/05/04 10:53:21;;;;;;;2.72;0.80;;;21.40;35.70;;;;;;5096982;28;20039;-65
2021/05/04 10:55:53;;;;;;;3.08;0.98;;;21.40;35.70;;;;;;5096376;28;20119;-66
2021/05/04 10:58:25;;;;;;;2.30;1.10;;;21.40;35.70;;;;;;5102612;28;20095;-65
2021/05/04 11:01:07;;;;;;;1.67;0.82;;;21.40;35.70;;;;;;5117534;28;20038;-66
2021/05/04 11:03:32;;;;;;;4.22;1.08;;;21.50;35.60;;;;;;5117483;27;20034;-64
2021/05/04 11:06:02;;;;;;;1.15;0.50;;;21.50;35.50;;;;;;5116592;28;20024;-64
2021/05/04 11:08:48;;;;;;;5.53;0.77;;;21.60;35.40;;;;;;5115888;28;20098;-65
2021/05/04 11:11:27;;;;;;;2.33;0.90;;;21.70;35.40;;;;;;5105899;28;20040;-67
2021/05/04 11:13:54;;;;;;;2.80;0.73;;;21.80;35.30;;;;;;5117161;28;20023;-65
2021/05/04 11:16:29;;;;;;;2.35;0.70;;;21.80;35.30;;;;;;5116704;27;20065;-65
2021/05/04 11:19:05;;;;;;;2.95;0.75;;;21.80;35.30;;;;;;5116879;28;20051;-64
2021/05/04 11:21:48;;;;;;;2.15;0.65;;;21.80;35.30;;;;;;5116839;28;20024;-63
2021/05/04 11:24:19;;;;;;;4.18;1.10;;;21.80;35.30;;;;;;5116440;27;20051;-63
2021/05/04 11:26:50;;;;;;;1.25;0.50;;;21.80;35.30;;;;;;5116451;28;20509;-63
2021/05/04 11:29:19;;;;;;;1.77;0.85;;;21.80;35.30;;;;;;5116406;28;20023;-64
2021/05/04 11:31:47;;;;;;;1.20;0.60;;;21.80;35.40;;;;;;5116708;28;20024;-64
2021/05/04 11:34:41;;;;;;;2.13;0.60;;;21.80;35.30;;;;;;5116603;28;20015;-66
2021/05/04 11:37:29;;;;;;;3.08;0.90;;;21.80;35.10;;;;;;5116478;28;20488;-64
2021/05/04 11:40:01;;;;;;;2.88;0.70;;;21.90;35.10;;;;;;5116248;28;20043;-64
2021/05/04 11:42:46;;;;;;;6.53;1.00;;;21.80;35.20;;;;;;5116500;28;20544;-64
2021/05/04 11:45:24;;;;;;;4.55;0.80;;;21.90;35.30;;;;;;5116906;28;20347;-65
2021/05/04 11:48:15;;;;;;;2.60;0.75;;;21.80;35.20;;;;;;5116751;28;20429;-63
2021/05/04 11:50:52;;;;;;;1.30;0.70;;;21.80;35.30;;;;;;5116426;27;20035;-66
2021/05/04 11:53:19;;;;;;;1.92;0.70;;;21.80;35.40;;;;;;5116220;28;20043;-65
2021/05/04 11:55:53;;;;;;;4.22;1.02;;;21.80;35.40;;;;;;5115559;28;20032;-65
2021/05/04 11:58:24;;;;;;;2.92;0.98;;;21.80;35.40;;;;;;5117398;28;20020;-63
2021/05/04 12:01:00;;;;;;;3.00;0.90;;;21.80;35.40;;;;;;5121786;27;20024;-63
2021/05/04 12:03:26;;;;;;;3.00;0.80;;;21.90;35.30;;;;;;5116742;28;20051;-64
2021/05/04 12:05:56;;;;;;;3.50;0.82;;;21.90;35.20;;;;;;5115482;28;20023;-66
2021/05/04 12:08:24;;;;;;;5.88;0.90;;;22.00;35.30;;;;;;5116036;28;20049;-65
2021/05/04 12:10:49;;;;;;;2.25;0.65;;;22.00;35.30;;;;;;5116588;28;20030;-65
2021/05/04 12:13:25;;;;;;;1.63;0.68;;;22.00;35.20;;;;;;5115788;28;20111;-65
2021/05/04 12:15:57;;;;;;;2.78;0.60;;;21.90;35.30;;;;;;5115071;28;20026;-65
2021/05/04 12:18:24;;;;;;;2.85;0.70;;;21.90;35.30;;;;;;5116419;27;20111;-65
2021/05/04 12:20:57;;;;;;;4.18;0.80;;;22.00;35.20;;;;;;5115969;28;20060;-65
2021/05/04 12:23:33;;;;;;;2.58;0.88;;;21.90;35.20;;;;;;5115350;28;20558;-66
2021/05/04 12:26:05;;;;;;;3.15;0.70;;;21.90;35.30;;;;;;5115387;28;20041;-65
2021/05/04 12:28:54;;;;;;;2.75;0.73;;;21.90;35.30;;;;;;5115621;28;20030;-65
2021/05/04 12:31:28;;;;;;;3.20;0.80;;;21.90;35.30;;;;;;5115711;28;20106;-65
2021/05/04 12:33:55;;;;;;;;;;;21.80;35.30;;;;;;5116060;28;20028;-65
2021/05/04 12:36:43;;;;;;;1.52;0.70;;;21.80;35.30;;;;;;5115767;28;19946;-65
2021/05/04 12:39:29;;;;;;;2.22;0.77;;;21.70;35.40;;;;;;5115663;28;20024;-65
2021/05/04 12:41:57;;;;;;;2.72;0.77;;;21.70;35.40;;;;;;5115278;28;20107;-65
2021/05/04 12:44:30;;;;;;;2.30;0.73;;;21.60;35.30;;;;;;5115423;28;20409;-67
2021/05/04 12:47:16;;;;;;;3.47;0.98;;;21.70;35.30;;;;;;5115131;28;20043;-65
2021/05/04 12:49:44;;;;;;;3.13;0.93;;;21.90;35.10;;;;;;5115299;28;20083;-65
2021/05/04 12:52:18;;;;;;;3.15;0.90;;;21.80;35.10;;;;;;5115069;28;20031;-66
2021/05/04 12:54:45;;;;;;;4.05;0.80;;;21.70;35.20;;;;;;5115220;28;20085;-65
2021/05/04 12:57:26;;;;;;;6.47;1.08;;;21.60;35.30;;;;;;5114891;28;20031;-66
2021/05/04 12:59:52;;;;;;;2.42;0.88;;;21.60;35.20;;;;;;5115272;28;20020;-67
2021/05/04 13:02:23;;;;;;;1.80;0.70;;;21.60;35.30;;;;;;5114967;28;20107;-66
2021/05/04 13:05:09;;;;;;;3.72;0.75;;;21.60;35.20;;;;;;5114459;28;20383;-66